« Back
NWS Peachtree City, Ga » Text Product » MCN Terminal Aerodrome Forecast


Printer-friendly Version
Current Version              Previous Versions:   1  2  3  4  5  6  7  8  9  

Terminal Aerodrome Forecast

907
FTUS42 KFFC 021130 AAA
TAFMCN
TAF AMD
KMCN 021130Z 0212/0312 VRB03KT P6SM FEW050 SCT250
      TEMPO 0212/0213 3SM BR
     FM021400 07003KT P6SM SCT035 SCT250
     FM021700 10005KT P6SM BKN050
     FM030000 00000KT P6SM SCT050 BKN250=



USA.gov is the U.S. government's official web portal to all federal, state and local government web resources and services.